Tynda, Russia
Current Conditions -  °F | °C
As of 12:30 PM on Tuesday 23 Dec 2014 (Local Time) from UHBB Reporting Station
Clear Clear  
Wind Chill: -11°   Ceiling: Unl
Heat Index: -11°   Visibility: 6mi
Dew Point: -17°   Wind: 2mph
Humidity: 77%   Direction: NA
Pressure: 30"   Gusts: NA
Location:  55.17°N, 124.72°E
Report Text: UHBB 230330Z VRB01MPS CAVOK M24/M27 Q1016 NOSIG RMK QFE744/099236410250
Loading
Personal Weather Stations






























Interactive Weather Map New forecast layout! Learn more

10-Day Weather Forecast

Advertisements
Track Severe Weather on mobile